Time;durP1;ratioP1;P1;durP2;ratioP2;P2;SDS_P1;SDS_P2;PMS_P1;PMS_P2;Temp;Humidity;BMP_temperature;BMP_pressure;BME280_temperature;BME280_humidity;BME280_pressure;Samples;Min_cycle;Max_cycle;Signal;HPM_P1;HPM_P2
2023/04/11 00:00:10;;;;;;;19.30;4.10;;;;;;;;;;4888693;28;100150;-75
2023/04/11 00:02:39;;;;;;;25.75;4.82;;;;;;;;;;4888438;28;100041;-74
2023/04/11 00:05:06;;;;;;;26.58;4.93;;;;;;;;;;4887996;28;99831;-74
2023/04/11 00:07:33;;;;;;;21.42;4.57;;;;;;;;;;4887308;28;99470;-75
2023/04/11 00:09:59;;;;;;;22.75;4.68;;;;;;;;;;4869784;28;99913;-74
2023/04/11 00:12:26;;;;;;;23.50;4.20;;;;;;;;;;4880098;28;99446;-75
2023/04/11 00:14:52;;;;;;;37.17;5.55;;;;;;;;;;4891239;28;100105;-75
2023/04/11 00:17:19;;;;;;;38.13;5.60;;;;;;;;;;4888122;28;100892;-75
2023/04/11 00:19:45;;;;;;;33.20;5.63;;;;;;;;;;4887938;28;100336;-74
2023/04/11 00:22:14;;;;;;;30.77;5.72;;;;;;;;;;4887895;28;99502;-75
2023/04/11 00:24:40;;;;;;;43.90;6.38;;;;;;;;;;4888588;28;99990;-75
2023/04/11 00:27:07;;;;;;;38.47;6.07;;;;;;;;;;4887703;28;100150;-75
2023/04/11 00:29:34;;;;;;;36.90;5.55;;;;;;;;;;4888166;28;98797;-74
2023/04/11 00:32:00;;;;;;;44.25;8.10;;;;;;;;;;4889094;28;99037;-75
2023/04/11 00:34:27;;;;;;;39.67;5.25;;;;;;;;;;4888392;28;99322;-75
2023/04/11 00:36:53;;;;;;;38.95;7.28;;;;;;;;;;4906903;28;101978;-74
2023/04/11 00:39:21;;;;;;;43.95;6.05;;;;;;;;;;4889583;28;99632;-75
2023/04/11 00:41:48;;;;;;;41.45;6.80;;;;;;;;;;4893939;28;98798;-75
2023/04/11 00:44:15;;;;;;;34.90;6.10;;;;;;;;;;4891792;28;99037;-75
2023/04/11 00:46:42;;;;;;;48.60;6.72;;;;;;;;;;4893685;28;99260;-75
2023/04/11 00:49:11;;;;;;;40.38;6.28;;;;;;;;;;4890734;28;102927;-75
2023/04/11 00:51:38;;;;;;;35.70;5.53;;;;;;;;;;4891467;28;99038;-74
2023/04/11 00:54:09;;;;;;;41.50;7.20;;;;;;;;;;4890907;28;99239;-75
2023/04/11 00:56:35;;;;;;;42.33;6.05;;;;;;;;;;4891712;28;98888;-74
2023/04/11 00:59:02;;;;;;;30.23;6.18;;;;;;;;;;4893587;28;100786;-74
2023/04/11 01:01:29;;;;;;;31.90;6.43;;;;;;;;;;4890375;28;99234;-74
2023/04/11 01:03:55;;;;;;;30.88;6.20;;;;;;;;;;4890853;28;99293;-74
2023/04/11 01:06:23;;;;;;;32.90;5.60;;;;;;;;;;4891248;28;99192;-74
2023/04/11 01:08:49;;;;;;;44.65;7.32;;;;;;;;;;4879217;28;98896;-74
2023/04/11 01:11:18;;;;;;;32.70;6.53;;;;;;;;;;4872366;28;100259;-74
2023/04/11 01:13:45;;;;;;;36.00;5.78;;;;;;;;;;4890384;28;99674;-74
2023/04/11 01:16:11;;;;;;;32.67;5.38;;;;;;;;;;4889181;28;100072;-74
2023/04/11 01:18:38;;;;;;;38.58;5.43;;;;;;;;;;4891320;28;99046;-74
2023/04/11 01:21:05;;;;;;;39.70;7.68;;;;;;;;;;4895039;28;98444;-74
2023/04/11 01:23:33;;;;;;;30.27;6.15;;;;;;;;;;4889032;28;100615;-74
2023/04/11 01:25:59;;;;;;;23.10;4.45;;;;;;;;;;4889851;28;101807;-73
2023/04/11 01:28:26;;;;;;;23.15;4.55;;;;;;;;;;4888203;28;100352;-74
2023/04/11 01:30:52;;;;;;;27.08;4.25;;;;;;;;;;4891361;28;100037;-74
2023/04/11 01:33:19;;;;;;;23.63;4.18;;;;;;;;;;4888110;28;101048;-74
2023/04/11 01:35:47;;;;;;;26.50;4.90;;;;;;;;;;4905065;28;101715;-74
2023/04/11 01:38:13;;;;;;;31.10;5.25;;;;;;;;;;4891254;28;98973;-74
2023/04/11 01:40:40;;;;;;;15.95;3.35;;;;;;;;;;4893960;28;99503;-73
2023/04/11 01:43:08;;;;;;;15.52;3.25;;;;;;;;;;4889639;28;98757;-74
2023/04/11 01:45:35;;;;;;;10.50;2.70;;;;;;;;;;4889584;28;99474;-74
2023/04/11 01:48:07;;;;;;;12.80;2.38;;;;;;;;;;4888608;28;99366;-74
2023/04/11 01:50:34;;;;;;;13.02;3.08;;;;;;;;;;4903332;28;99225;-75
2023/04/11 01:53:01;;;;;;;20.08;2.65;;;;;;;;;;4888851;28;101098;-75
2023/04/11 01:55:28;;;;;;;11.02;2.40;;;;;;;;;;4889877;28;101990;-75
2023/04/11 01:57:54;;;;;;;12.02;2.35;;;;;;;;;;4890061;28;100149;-74
2023/04/11 02:00:22;;;;;;;11.73;2.50;;;;;;;;;;4889072;28;101171;-74
2023/04/11 02:02:49;;;;;;;12.35;2.30;;;;;;;;;;4892365;28;99890;-74
2023/04/11 02:05:16;;;;;;;10.75;2.90;;;;;;;;;;4889816;28;99366;-75
2023/04/11 02:07:43;;;;;;;8.75;2.45;;;;;;;;;;4887865;28;98795;-74
2023/04/11 02:10:15;;;;;;;7.93;1.70;;;;;;;;;;4886709;28;100503;-74
2023/04/11 02:12:41;;;;;;;13.35;2.55;;;;;;;;;;4880292;28;99961;-74
2023/04/11 02:15:08;;;;;;;7.75;2.55;;;;;;;;;;4890457;28;98840;-74
2023/04/11 02:17:35;;;;;;;8.57;2.38;;;;;;;;;;4904174;28;101537;-74
2023/04/11 02:20:05;;;;;;;15.77;2.97;;;;;;;;;;4889556;28;99560;-74
2023/04/11 02:22:32;;;;;;;15.20;2.60;;;;;;;;;;4890415;28;98690;-76
2023/04/11 02:24:58;;;;;;;20.73;3.05;;;;;;;;;;4892796;28;99248;-74
2023/04/11 02:27:24;;;;;;;11.85;2.47;;;;;;;;;;4888580;28;100362;-73
2023/04/11 02:29:53;;;;;;;13.45;2.60;;;;;;;;;;4888135;28;99812;-74
2023/04/11 02:32:19;;;;;;;15.95;2.72;;;;;;;;;;4887202;28;101457;-76
2023/04/11 02:34:46;;;;;;;7.47;2.15;;;;;;;;;;4890276;28;98742;-74
2023/04/11 02:37:12;;;;;;;10.95;2.83;;;;;;;;;;4889982;28;98621;-75
2023/04/11 02:39:39;;;;;;;8.10;1.83;;;;;;;;;;4887654;28;100033;-74
2023/04/11 02:42:05;;;;;;;8.40;2.00;;;;;;;;;;4887788;28;99782;-74
2023/04/11 02:44:31;;;;;;;11.25;1.98;;;;;;;;;;4889996;28;99637;-74
2023/04/11 02:46:59;;;;;;;13.75;2.28;;;;;;;;;;4891038;28;98873;-75
2023/04/11 02:49:25;;;;;;;5.40;1.70;;;;;;;;;;4889745;28;101799;-76
2023/04/11 02:51:52;;;;;;;11.68;2.80;;;;;;;;;;4888556;28;100266;-74
2023/04/11 02:54:18;;;;;;;14.05;2.67;;;;;;;;;;4887139;28;100901;-74
2023/04/11 02:56:45;;;;;;;10.10;1.95;;;;;;;;;;4889925;28;99828;-74
2023/04/11 02:59:12;;;;;;;10.75;2.20;;;;;;;;;;4888953;28;100427;-74
2023/04/11 03:01:39;;;;;;;15.82;2.83;;;;;;;;;;4886886;28;101246;-74
2023/04/11 03:04:06;;;;;;;3.95;1.52;;;;;;;;;;4889709;28;99321;-75
2023/04/11 03:06:41;;;;;;;16.40;2.55;;;;;;;;;;4904005;28;100043;-74
2023/04/11 03:09:08;;;;;;;12.57;2.67;;;;;;;;;;4890681;28;101787;-73
2023/04/11 03:11:34;;;;;;;12.02;2.17;;;;;;;;;;4887790;28;102267;-73
2023/04/11 03:14:02;;;;;;;7.03;1.83;;;;;;;;;;4887839;28;100920;-74
2023/04/11 03:16:28;;;;;;;8.20;1.67;;;;;;;;;;4887715;28;101328;-74
2023/04/11 03:18:57;;;;;;;17.45;2.63;;;;;;;;;;4888190;28;102072;-74
2023/04/11 03:21:24;;;;;;;16.10;2.53;;;;;;;;;;4888575;28;98941;-73
2023/04/11 03:23:50;;;;;;;3.78;1.33;;;;;;;;;;4890038;28;98792;-74
2023/04/11 03:26:17;;;;;;;7.47;2.25;;;;;;;;;;4887862;28;101839;-75
2023/04/11 03:28:44;;;;;;;8.95;2.15;;;;;;;;;;4888328;28;99003;-76
2023/04/11 03:31:16;;;;;;;12.98;1.92;;;;;;;;;;4891058;28;101278;-76
2023/04/11 03:33:44;;;;;;;10.45;2.20;;;;;;;;;;4886619;28;101393;-74
2023/04/11 03:36:11;;;;;;;13.55;2.58;;;;;;;;;;4888676;28;100095;-76
2023/04/11 03:38:38;;;;;;;11.30;3.17;;;;;;;;;;4903614;28;99440;-74
2023/04/11 03:41:04;;;;;;;13.45;2.67;;;;;;;;;;4903803;28;101953;-75
2023/04/11 03:43:31;;;;;;;11.05;1.90;;;;;;;;;;4902661;28;98963;-75
2023/04/11 03:45:59;;;;;;;11.75;2.50;;;;;;;;;;4887718;28;100536;-74
2023/04/11 03:48:34;;;;;;;13.63;2.97;;;;;;;;;;4887489;28;98979;-76
2023/04/11 03:51:06;;;;;;;9.63;2.22;;;;;;;;;;4890126;28;100674;-74
2023/04/11 03:53:52;;;;;;;9.35;1.98;;;;;;;;;;4887179;28;101664;-76
2023/04/11 03:56:23;;;;;;;10.43;3.03;;;;;;;;;;4886311;28;101353;-74
2023/04/11 03:58:50;;;;;;;7.45;2.70;;;;;;;;;;4888793;28;99454;-76
2023/04/11 04:01:19;;;;;;;11.50;2.33;;;;;;;;;;4887291;28;101587;-74
2023/04/11 04:03:48;;;;;;;12.13;2.67;;;;;;;;;;4886758;28;101477;-73
2023/04/11 04:06:15;;;;;;;13.93;2.20;;;;;;;;;;4887183;28;101715;-75
2023/04/11 04:08:43;;;;;;;7.20;1.75;;;;;;;;;;4876677;28;101405;-73
2023/04/11 04:11:09;;;;;;;11.82;2.00;;;;;;;;;;4867890;28;101093;-76
2023/04/11 04:13:36;;;;;;;13.65;2.13;;;;;;;;;;4900208;28;101013;-73
2023/04/11 04:16:11;;;;;;;10.93;2.35;;;;;;;;;;4887434;28;100212;-75
2023/04/11 04:18:40;;;;;;;16.13;3.33;;;;;;;;;;4902187;28;99406;-75
2023/04/11 04:21:08;;;;;;;9.68;2.20;;;;;;;;;;4886692;28;99997;-73
2023/04/11 04:23:37;;;;;;;8.48;1.88;;;;;;;;;;4887313;28;102317;-75
2023/04/11 04:26:23;;;;;;;19.55;2.55;;;;;;;;;;4886429;28;101682;-75
2023/04/11 04:29:05;;;;;;;11.60;2.65;;;;;;;;;;4868314;28;99064;-74
2023/04/11 04:31:49;;;;;;;13.35;2.45;;;;;;;;;;4867606;28;101557;-74
2023/04/11 04:34:20;;;;;;;13.77;2.73;;;;;;;;;;4867910;28;100220;-74
2023/04/11 04:36:48;;;;;;;15.15;2.25;;;;;;;;;;4881790;28;100154;-74
2023/04/11 04:39:24;;;;;;;13.73;2.53;;;;;;;;;;4886849;28;101211;-75
2023/04/11 04:41:57;;;;;;;19.42;2.45;;;;;;;;;;4886884;28;101726;-74
2023/04/11 04:44:27;;;;;;;9.93;2.17;;;;;;;;;;4886740;28;100970;-75
2023/04/11 04:46:57;;;;;;;11.60;2.63;;;;;;;;;;4885372;28;102166;-75
2023/04/11 04:49:26;;;;;;;14.50;3.80;;;;;;;;;;4886744;28;101748;-74
2023/04/11 04:51:52;;;;;;;12.40;2.30;;;;;;;;;;4886919;28;100942;-75
2023/04/11 04:54:19;;;;;;;11.63;2.58;;;;;;;;;;4885578;28;99223;-75
2023/04/11 04:56:49;;;;;;;10.35;2.05;;;;;;;;;;4887589;28;101697;-75
2023/04/11 04:59:17;;;;;;;12.27;2.25;;;;;;;;;;4890190;28;101743;-75
2023/04/11 05:01:52;;;;;;;9.80;2.55;;;;;;;;;;4902322;28;101148;-75
2023/04/11 05:04:25;;;;;;;6.80;1.52;;;;;;;;;;4887680;28;99297;-75
2023/04/11 05:06:55;;;;;;;15.23;1.85;;;;;;;;;;4886499;28;101556;-74
2023/04/11 05:09:22;;;;;;;6.30;1.95;;;;;;;;;;4886805;28;101199;-75
2023/04/11 05:11:51;;;;;;;9.68;1.73;;;;;;;;;;4886442;28;100982;-76
2023/04/11 05:14:20;;;;;;;8.55;1.60;;;;;;;;;;4885925;28;101355;-75
2023/04/11 05:16:50;;;;;;;9.18;2.75;;;;;;;;;;4886962;28;99806;-75
2023/04/11 05:19:16;;;;;;;6.65;1.85;;;;;;;;;;4886553;28;99857;-75
2023/04/11 05:21:45;;;;;;;7.75;1.90;;;;;;;;;;4889117;28;102112;-75
2023/04/11 05:24:12;;;;;;;11.88;3.03;;;;;;;;;;4888667;28;99186;-75
2023/04/11 05:26:39;;;;;;;7.13;1.67;;;;;;;;;;4890788;28;100152;-75
2023/04/11 05:29:06;;;;;;;12.10;2.40;;;;;;;;;;4889464;28;99025;-75
2023/04/11 05:31:33;;;;;;;9.80;1.88;;;;;;;;;;4905097;28;100820;-74
2023/04/11 05:34:01;;;;;;;9.30;1.73;;;;;;;;;;4887859;28;99854;-75
2023/04/11 05:36:27;;;;;;;14.13;3.17;;;;;;;;;;4903847;28;102147;-75
2023/04/11 05:38:54;;;;;;;10.30;2.58;;;;;;;;;;4889771;28;102302;-74
2023/04/11 05:41:20;;;;;;;10.13;1.77;;;;;;;;;;4889566;28;100356;-75
2023/04/11 05:43:47;;;;;;;8.50;2.65;;;;;;;;;;4892891;28;98547;-74
2023/04/11 05:46:13;;;;;;;8.05;1.27;;;;;;;;;;4889501;28;100268;-74
2023/04/11 05:48:40;;;;;;;7.65;1.77;;;;;;;;;;4888535;28;100014;-74
2023/04/11 05:51:07;;;;;;;9.93;1.52;;;;;;;;;;4889118;28;101624;-75
2023/04/11 05:53:34;;;;;;;9.05;1.60;;;;;;;;;;4891123;28;98775;-75
2023/04/11 05:56:01;;;;;;;12.80;2.50;;;;;;;;;;4888668;28;101412;-74
2023/04/11 05:58:30;;;;;;;13.98;2.45;;;;;;;;;;4890272;28;99870;-74
2023/04/11 06:00:58;;;;;;;14.48;2.10;;;;;;;;;;4889764;28;100105;-75
2023/04/11 06:03:25;;;;;;;13.02;2.33;;;;;;;;;;4892329;28;99270;-75
2023/04/11 06:05:52;;;;;;;6.18;2.00;;;;;;;;;;4890555;28;100509;-75
2023/04/11 06:08:20;;;;;;;10.60;1.80;;;;;;;;;;4889703;28;100134;-75
2023/04/11 06:10:46;;;;;;;5.45;1.63;;;;;;;;;;4889754;28;99979;-75
2023/04/11 06:13:12;;;;;;;10.98;2.15;;;;;;;;;;4890120;28;99476;-74
2023/04/11 06:15:39;;;;;;;15.77;2.80;;;;;;;;;;4889812;28;100028;-74
2023/04/11 06:18:05;;;;;;;12.60;2.08;;;;;;;;;;4890012;28;99276;-74
2023/04/11 06:20:32;;;;;;;18.08;2.08;;;;;;;;;;4889985;28;100412;-75
2023/04/11 06:23:00;;;;;;;9.23;1.58;;;;;;;;;;4890421;28;100242;-75
2023/04/11 06:25:26;;;;;;;8.77;2.13;;;;;;;;;;4892076;28;100358;-75
2023/04/11 06:27:52;;;;;;;26.17;4.97;;;;;;;;;;4890026;28;98973;-75
2023/04/11 06:30:19;;;;;;;11.43;3.05;;;;;;;;;;4889559;28;99047;-75
2023/04/11 06:32:45;;;;;;;7.38;1.88;;;;;;;;;;4887483;28;100305;-75
2023/04/11 06:35:12;;;;;;;13.35;1.98;;;;;;;;;;4876976;28;99918;-75
2023/04/11 06:37:38;;;;;;;9.65;2.55;;;;;;;;;;4889117;28;100040;-75
2023/04/11 06:40:05;;;;;;;6.93;2.38;;;;;;;;;;4889389;28;100192;-75
2023/04/11 06:42:32;;;;;;;12.65;2.53;;;;;;;;;;4890227;28;99871;-75
2023/04/11 06:44:58;;;;;;;13.65;2.70;;;;;;;;;;4889337;28;98505;-75
2023/04/11 06:47:24;;;;;;;11.95;2.50;;;;;;;;;;4892811;28;100472;-74
2023/04/11 06:49:51;;;;;;;12.65;2.58;;;;;;;;;;4889363;28;99214;-75
2023/04/11 06:52:17;;;;;;;12.18;2.88;;;;;;;;;;4888866;28;100315;-75
2023/04/11 06:54:44;;;;;;;9.82;2.65;;;;;;;;;;4889977;28;100379;-75
2023/04/11 06:57:10;;;;;;;14.20;2.47;;;;;;;;;;4890029;28;100185;-76
2023/04/11 06:59:36;;;;;;;9.57;2.67;;;;;;;;;;4888830;28;100312;-75
2023/04/11 07:02:03;;;;;;;10.63;2.10;;;;;;;;;;4890066;28;100147;-74
2023/04/11 07:04:30;;;;;;;9.63;2.63;;;;;;;;;;4885183;28;99915;-75
2023/04/11 07:07:00;;;;;;;12.93;2.55;;;;;;;;;;4886869;28;99295;-74
2023/04/11 07:09:26;;;;;;;16.60;2.80;;;;;;;;;;4890747;28;100177;-74
2023/04/11 07:11:52;;;;;;;8.90;2.38;;;;;;;;;;4889446;28;99448;-74
2023/04/11 07:14:19;;;;;;;12.73;2.20;;;;;;;;;;4887124;28;99306;-74
2023/04/11 07:16:45;;;;;;;12.45;2.50;;;;;;;;;;4889584;28;100719;-74
2023/04/11 07:19:12;;;;;;;17.30;3.10;;;;;;;;;;4886722;28;100147;-74
2023/04/11 07:21:38;;;;;;;15.40;2.53;;;;;;;;;;4888157;28;99371;-74
2023/04/11 07:24:05;;;;;;;11.80;2.50;;;;;;;;;;4888508;28;99188;-74
2023/04/11 07:26:31;;;;;;;13.98;3.22;;;;;;;;;;4888864;28;99469;-74
2023/04/11 07:28:58;;;;;;;15.13;2.63;;;;;;;;;;4887038;28;98985;-75
2023/04/11 07:31:26;;;;;;;9.73;2.40;;;;;;;;;;4892020;28;98983;-75
2023/04/11 07:33:52;;;;;;;11.43;2.55;;;;;;;;;;4884240;28;100207;-74
2023/04/11 07:36:19;;;;;;;12.57;2.83;;;;;;;;;;4888355;28;99137;-74
2023/04/11 07:38:45;;;;;;;11.20;2.63;;;;;;;;;;4888652;28;100182;-74
2023/04/11 07:41:12;;;;;;;21.27;2.47;;;;;;;;;;4888306;28;100471;-75
2023/04/11 07:43:39;;;;;;;12.88;1.88;;;;;;;;;;4888473;28;98857;-75
2023/04/11 07:46:05;;;;;;;8.82;2.17;;;;;;;;;;4888604;28;100401;-75
2023/04/11 07:48:32;;;;;;;8.75;2.28;;;;;;;;;;4888403;28;100530;-73
2023/04/11 07:50:58;;;;;;;7.82;2.10;;;;;;;;;;4890733;28;99007;-73
2023/04/11 07:53:25;;;;;;;13.52;2.75;;;;;;;;;;4888379;28;99969;-74
2023/04/11 07:55:52;;;;;;;9.55;2.50;;;;;;;;;;4885753;28;100202;-74
2023/04/11 07:58:21;;;;;;;16.30;2.83;;;;;;;;;;4882940;28;100507;-73
2023/04/11 08:00:49;;;;;;;10.60;2.15;;;;;;;;;;4888447;28;100621;-74
2023/04/11 08:03:16;;;;;;;12.45;2.78;;;;;;;;;;4881171;28;100315;-77
2023/04/11 08:05:43;;;;;;;13.68;2.78;;;;;;;;;;4885225;28;100782;-76
2023/04/11 08:08:09;;;;;;;10.18;3.90;;;;;;;;;;4888855;28;100016;-76
2023/04/11 08:10:36;;;;;;;7.43;2.00;;;;;;;;;;4887411;28;99013;-77
2023/04/11 08:13:02;;;;;;;11.55;2.28;;;;;;;;;;4890816;28;100222;-77
2023/04/11 08:15:28;;;;;;;12.00;2.72;;;;;;;;;;4884499;28;100840;-74
2023/04/11 08:17:55;;;;;;;13.48;2.40;;;;;;;;;;4887501;28;99509;-74
2023/04/11 08:20:22;;;;;;;11.65;2.20;;;;;;;;;;4884243;28;98972;-75
2023/04/11 08:22:49;;;;;;;12.60;2.15;;;;;;;;;;4885915;28;99225;-76
2023/04/11 08:25:15;;;;;;;16.15;2.63;;;;;;;;;;4887424;28;100160;-76
2023/04/11 08:27:42;;;;;;;16.75;2.60;;;;;;;;;;4887070;28;100224;-74
2023/04/11 08:30:08;;;;;;;9.73;2.15;;;;;;;;;;4886420;28;99845;-74
2023/04/11 08:32:35;;;;;;;7.63;2.03;;;;;;;;;;4887513;28;100590;-75
2023/04/11 08:35:01;;;;;;;8.88;1.90;;;;;;;;;;4890293;28;100343;-74
2023/04/11 08:37:28;;;;;;;11.60;1.98;;;;;;;;;;4887256;28;100227;-75
2023/04/11 08:39:55;;;;;;;11.40;2.47;;;;;;;;;;4888630;28;99197;-76
2023/04/11 08:42:26;;;;;;;6.72;1.95;;;;;;;;;;4887588;28;99852;-75
2023/04/11 08:44:56;;;;;;;10.35;2.17;;;;;;;;;;4889775;28;99477;-74
2023/04/11 08:47:23;;;;;;;13.68;2.33;;;;;;;;;;4891988;28;100038;-75
2023/04/11 08:49:50;;;;;;;10.65;2.70;;;;;;;;;;4884647;28;99950;-73
2023/04/11 08:52:18;;;;;;;9.52;2.58;;;;;;;;;;4884796;28;101415;-75
2023/04/11 08:54:45;;;;;;;13.45;2.45;;;;;;;;;;4886763;28;100209;-74
2023/04/11 08:57:24;;;;;;;7.10;2.10;;;;;;;;;;4891388;28;99716;-75
2023/04/11 08:59:51;;;;;;;5.03;1.60;;;;;;;;;;4888848;28;100230;-76
2023/04/11 09:02:18;;;;;;;23.65;1.88;;;;;;;;;;4885774;28;99811;-74
2023/04/11 09:04:46;;;;;;;8.82;1.92;;;;;;;;;;4891505;28;99497;-75
2023/04/11 09:07:14;;;;;;;6.38;2.03;;;;;;;;;;4890497;28;100023;-74
2023/04/11 09:09:40;;;;;;;9.88;2.22;;;;;;;;;;4893273;28;99452;-75
2023/04/11 09:12:07;;;;;;;9.73;3.30;;;;;;;;;;4889494;28;98598;-75
2023/04/11 09:14:34;;;;;;;4.78;1.98;;;;;;;;;;4890284;28;99238;-75
2023/04/11 09:17:03;;;;;;;9.13;1.85;;;;;;;;;;4890839;28;99976;-74
2023/04/11 09:19:30;;;;;;;8.52;2.22;;;;;;;;;;4893274;28;100311;-74
2023/04/11 09:21:59;;;;;;;3.17;1.80;;;;;;;;;;4889543;28;100082;-75
2023/04/11 09:24:28;;;;;;;8.98;2.75;;;;;;;;;;4888836;28;100212;-75
2023/04/11 09:27:05;;;;;;;9.15;1.80;;;;;;;;;;4882725;28;101067;-76
2023/04/11 09:29:35;;;;;;;6.93;1.70;;;;;;;;;;4889255;28;99122;-75
2023/04/11 09:32:02;;;;;;;7.90;1.77;;;;;;;;;;4891028;28;99309;-74
2023/04/11 09:34:28;;;;;;;7.63;2.17;;;;;;;;;;4890549;28;99898;-75
2023/04/11 09:36:55;;;;;;;6.28;2.33;;;;;;;;;;4897207;28;99281;-74
2023/04/11 09:39:21;;;;;;;10.77;2.10;;;;;;;;;;4890483;28;100393;-75
2023/04/11 09:41:48;;;;;;;8.20;2.78;;;;;;;;;;4890095;28;99625;-75
2023/04/11 09:44:14;;;;;;;9.65;2.35;;;;;;;;;;4890955;28;100401;-74
2023/04/11 09:46:59;;;;;;;12.15;2.53;;;;;;;;;;4891542;28;99455;-74
2023/04/11 09:49:26;;;;;;;4.97;1.60;;;;;;;;;;4870868;28;99868;-75
2023/04/11 09:51:52;;;;;;;9.63;2.50;;;;;;;;;;4873159;28;99762;-75
2023/04/11 09:54:19;;;;;;;11.30;2.10;;;;;;;;;;4889704;28;99329;-75
2023/04/11 09:56:46;;;;;;;11.88;3.10;;;;;;;;;;4888959;28;99212;-75
2023/04/11 09:59:13;;;;;;;7.60;2.13;;;;;;;;;;4888791;28;98870;-75
2023/04/11 10:01:40;;;;;;;7.40;2.10;;;;;;;;;;4893419;28;100274;-74
2023/04/11 10:04:09;;;;;;;2.05;1.10;;;;;;;;;;4888674;28;100372;-77
2023/04/11 10:06:40;;;;;;;12.98;2.45;;;;;;;;;;4899079;28;99690;-76
2023/04/11 10:09:08;;;;;;;8.95;2.70;;;;;;;;;;4889701;28;100905;-76
2023/04/11 10:11:34;;;;;;;8.55;1.95;;;;;;;;;;4898220;28;99544;-76
2023/04/11 10:14:01;;;;;;;4.70;1.90;;;;;;;;;;4874620;28;100157;-75
2023/04/11 10:16:31;;;;;;;2.60;1.45;;;;;;;;;;4875161;28;99230;-77
2023/04/11 10:18:57;;;;;;;5.10;1.70;;;;;;;;;;4871518;28;100502;-77
2023/04/11 10:21:31;;;;;;;5.93;1.63;;;;;;;;;;4870804;28;100091;-77
2023/04/11 10:24:07;;;;;;;8.48;1.63;;;;;;;;;;4874716;28;98972;-76
2023/04/11 10:26:46;;;;;;;4.60;1.60;;;;;;;;;;4871275;28;99108;-76
2023/04/11 10:32:06;;;;;;;5.55;1.77;;;;;;;;;;4869986;28;101326;-77
2023/04/11 10:34:37;;;;;;;7.70;2.03;;;;;;;;;;4877815;28;100328;-76
2023/04/11 10:37:11;;;;;;;2.90;1.10;;;;;;;;;;4870568;28;100049;-76
2023/04/11 10:39:52;;;;;;;4.80;1.35;;;;;;;;;;4877532;28;100343;-76
2023/04/11 10:42:24;;;;;;;9.20;1.42;;;;;;;;;;4881300;28;100129;-76
2023/04/11 10:45:09;;;;;;;5.57;1.58;;;;;;;;;;4879625;28;99581;-77
2023/04/11 10:47:36;;;;;;;7.68;1.98;;;;;;;;;;4891435;28;99546;-76
2023/04/11 10:50:02;;;;;;;7.90;2.00;;;;;;;;;;4891888;28;99552;-78
2023/04/11 10:52:36;;;;;;;4.88;1.98;;;;;;;;;;4888314;28;100174;-77
2023/04/11 10:55:22;;;;;;;5.93;1.63;;;;;;;;;;4887922;28;100390;-77
2023/04/11 10:58:07;;;;;;;6.82;1.83;;;;;;;;;;4899873;28;99287;-75
2023/04/11 11:00:46;;;;;;;6.10;1.92;;;;;;;;;;4889611;28;101077;-76
2023/04/11 11:03:17;;;;;;;3.83;1.00;;;;;;;;;;4894390;28;100284;-81
2023/04/11 11:05:44;;;;;;;6.25;1.98;;;;;;;;;;4895588;28;100267;-77
2023/04/11 11:08:11;;;;;;;10.75;1.70;;;;;;;;;;4889460;28;99857;-76
2023/04/11 11:10:39;;;;;;;3.00;1.58;;;;;;;;;;4892738;28;100070;-77
2023/04/11 11:13:05;;;;;;;7.03;1.60;;;;;;;;;;4890615;28;99385;-76
2023/04/11 11:15:36;;;;;;;7.65;1.70;;;;;;;;;;4894607;28;98902;-76
2023/04/11 11:18:03;;;;;;;7.72;1.90;;;;;;;;;;4889561;28;98697;-78
2023/04/11 11:20:30;;;;;;;5.13;1.50;;;;;;;;;;4889092;28;100206;-77
2023/04/11 11:22:57;;;;;;;10.27;2.15;;;;;;;;;;4888598;28;99962;-77
2023/04/11 11:25:24;;;;;;;4.35;1.42;;;;;;;;;;4887925;28;101290;-76
2023/04/11 11:28:00;;;;;;;5.30;1.60;;;;;;;;;;4887946;28;99496;-77
2023/04/11 11:30:27;;;;;;;5.97;1.95;;;;;;;;;;4887842;28;99938;-76
2023/04/11 11:32:55;;;;;;;4.93;1.55;;;;;;;;;;4891345;28;100487;-77
2023/04/11 11:35:22;;;;;;;4.82;1.55;;;;;;;;;;4883215;28;99215;-74
2023/04/11 11:37:51;;;;;;;3.28;1.55;;;;;;;;;;4886639;28;99996;-75
2023/04/11 11:40:20;;;;;;;6.30;2.25;;;;;;;;;;4884297;28;98675;-73
2023/04/11 11:42:50;;;;;;;3.75;1.35;;;;;;;;;;4887272;28;99706;-72
2023/04/11 11:45:17;;;;;;;7.85;2.03;;;;;;;;;;4877406;28;99125;-73
2023/04/11 11:47:44;;;;;;;8.73;1.88;;;;;;;;;;4886997;28;100326;-73
2023/04/11 11:50:22;;;;;;;3.90;1.90;;;;;;;;;;4886175;28;100129;-73
2023/04/11 11:52:48;;;;;;;13.52;2.15;;;;;;;;;;4886387;28;100140;-73
2023/04/11 11:55:18;;;;;;;4.28;2.17;;;;;;;;;;4890556;28;100196;-73
2023/04/11 11:57:45;;;;;;;9.93;1.90;;;;;;;;;;4892109;28;100458;-73
2023/04/11 12:00:11;;;;;;;9.50;1.98;;;;;;;;;;4889006;28;99386;-77
2023/04/11 12:02:39;;;;;;;16.90;2.80;;;;;;;;;;4887377;28;99194;-75
2023/04/11 12:05:06;;;;;;;7.18;2.08;;;;;;;;;;4887284;28;100291;-75
2023/04/11 12:07:35;;;;;;;9.18;2.65;;;;;;;;;;4887769;28;100078;-74
2023/04/11 12:10:05;;;;;;;11.73;2.88;;;;;;;;;;4893063;28;100299;-78
2023/04/11 12:12:35;;;;;;;4.15;1.50;;;;;;;;;;4869232;28;100529;-76
2023/04/11 12:15:02;;;;;;;7.00;2.00;;;;;;;;;;4887795;28;99165;-77
2023/04/11 12:17:35;;;;;;;5.07;1.67;;;;;;;;;;4887705;28;99993;-77
2023/04/11 12:20:06;;;;;;;3.53;1.35;;;;;;;;;;4886564;28;100987;-76
2023/04/11 12:22:33;;;;;;;5.53;1.48;;;;;;;;;;4878473;28;101218;-76
2023/04/11 12:25:17;;;;;;;5.32;2.13;;;;;;;;;;4888278;28;102229;-77
2023/04/11 12:27:44;;;;;;;9.18;1.83;;;;;;;;;;4887832;28;100332;-76
2023/04/11 12:30:15;;;;;;;5.40;1.58;;;;;;;;;;4886944;28;99905;-75
2023/04/11 12:32:42;;;;;;;6.57;2.00;;;;;;;;;;4887583;28;100036;-75
2023/04/11 12:35:09;;;;;;;8.60;1.73;;;;;;;;;;4885934;28;100402;-76
2023/04/11 12:37:36;;;;;;;8.18;2.10;;;;;;;;;;4888530;28;99983;-76
2023/04/11 12:40:14;;;;;;;9.98;1.98;;;;;;;;;;4887807;28;98939;-75
2023/04/11 12:42:41;;;;;;;5.53;1.65;;;;;;;;;;4900436;28;98937;-77
2023/04/11 12:45:21;;;;;;;6.60;2.17;;;;;;;;;;4886860;28;99011;-76
2023/04/11 12:47:47;;;;;;;4.05;1.75;;;;;;;;;;4887053;28;100651;-75
2023/04/11 12:50:14;;;;;;;6.45;2.08;;;;;;;;;;4885908;28;99268;-75
2023/04/11 12:52:40;;;;;;;3.33;1.45;;;;;;;;;;4885581;28;99818;-75
2023/04/11 12:55:08;;;;;;;5.90;1.85;;;;;;;;;;4886942;28;99495;-75
2023/04/11 12:57:35;;;;;;;1.80;1.38;;;;;;;;;;4887528;28;99324;-76
2023/04/11 13:00:05;;;;;;;8.00;2.03;;;;;;;;;;4887474;28;100737;-78
2023/04/11 13:02:32;;;;;;;3.97;1.63;;;;;;;;;;4884409;28;99402;-75
2023/04/11 13:05:10;;;;;;;5.97;1.83;;;;;;;;;;4886015;28;100943;-76
2023/04/11 13:07:36;;;;;;;7.13;1.88;;;;;;;;;;4882762;28;100202;-76
2023/04/11 13:10:03;;;;;;;6.80;2.10;;;;;;;;;;4874635;28;100492;-75
2023/04/11 13:12:30;;;;;;;7.15;1.60;;;;;;;;;;4885572;28;100352;-76
2023/04/11 13:14:56;;;;;;;8.38;1.75;;;;;;;;;;4888183;28;100588;-76
2023/04/11 13:17:23;;;;;;;7.57;2.65;;;;;;;;;;4886056;28;100011;-77
2023/04/11 13:19:49;;;;;;;7.60;1.85;;;;;;;;;;4887123;28;100236;-76
2023/04/11 13:22:16;;;;;;;5.57;1.55;;;;;;;;;;4889919;28;100448;-76
2023/04/11 13:24:42;;;;;;;8.45;1.98;;;;;;;;;;4886565;28;99152;-77
2023/04/11 13:27:08;;;;;;;7.75;2.40;;;;;;;;;;4881655;28;100902;-75
2023/04/11 13:29:35;;;;;;;6.20;1.63;;;;;;;;;;4885281;28;98929;-76
2023/04/11 13:32:01;;;;;;;12.43;2.25;;;;;;;;;;4887547;28;101259;-76
2023/04/11 13:34:28;;;;;;;5.18;2.08;;;;;;;;;;4886589;28;100294;-76
2023/04/11 13:36:54;;;;;;;5.35;1.83;;;;;;;;;;4883134;28;100444;-76
2023/04/11 13:39:21;;;;;;;10.18;2.03;;;;;;;;;;4887197;28;100032;-75
2023/04/11 13:41:47;;;;;;;9.57;1.83;;;;;;;;;;4884138;28;99958;-75
2023/04/11 13:44:14;;;;;;;9.65;2.42;;;;;;;;;;4890671;28;100027;-75
2023/04/11 13:46:40;;;;;;;4.35;1.50;;;;;;;;;;4889662;28;99183;-75
2023/04/11 13:49:07;;;;;;;6.22;2.05;;;;;;;;;;4890075;28;99933;-76
2023/04/11 13:51:33;;;;;;;9.98;2.00;;;;;;;;;;4890014;28;99900;-76
2023/04/11 13:54:00;;;;;;;7.07;1.85;;;;;;;;;;4886893;28;100453;-75
2023/04/11 13:56:26;;;;;;;6.90;1.90;;;;;;;;;;4889294;28;99992;-75
2023/04/11 13:58:52;;;;;;;5.32;1.85;;;;;;;;;;4889739;28;99821;-76
2023/04/11 14:01:19;;;;;;;7.68;1.77;;;;;;;;;;4889748;28;100105;-76
2023/04/11 14:03:46;;;;;;;4.07;1.65;;;;;;;;;;4889384;28;99104;-76
2023/04/11 14:06:12;;;;;;;8.63;1.70;;;;;;;;;;4893411;28;99913;-76
2023/04/11 14:08:39;;;;;;;11.80;1.95;;;;;;;;;;4889778;28;100286;-76
2023/04/11 14:11:05;;;;;;;5.78;1.33;;;;;;;;;;4890187;28;99263;-76
2023/04/11 14:13:32;;;;;;;4.00;1.77;;;;;;;;;;4887368;28;100332;-76
2023/04/11 14:15:58;;;;;;;7.25;1.75;;;;;;;;;;4889281;28;99372;-76
2023/04/11 14:18:34;;;;;;;5.20;1.80;;;;;;;;;;4890117;28;100890;-76
2023/04/11 14:21:01;;;;;;;3.03;1.40;;;;;;;;;;4890151;28;100672;-77
2023/04/11 14:23:28;;;;;;;4.65;1.65;;;;;;;;;;4885737;28;100242;-77
2023/04/11 14:25:54;;;;;;;7.80;1.92;;;;;;;;;;4893555;28;100491;-76
2023/04/11 14:28:21;;;;;;;5.22;1.52;;;;;;;;;;4887403;28;99791;-76
2023/04/11 14:30:47;;;;;;;8.90;2.15;;;;;;;;;;4888750;28;100232;-76
2023/04/11 14:33:14;;;;;;;2.30;1.27;;;;;;;;;;4890980;28;98563;-76
2023/04/11 14:35:41;;;;;;;6.55;1.70;;;;;;;;;;4885505;28;100504;-76